Portada
METAR-TAF:

METAR-TAF

Aeroports :

Hafar Al-Batin, Aràbia Saudita

latitud: 27-54N, longitud: 045-32E, altitud: 413 m

METAR: manca

Hora: 01:36 (22:36 UTC)

Pronòstic

L'informe es va fer fa 17 hores i 36 minuts, a les 05:00 UTC
Pronòstic vàlid del 06 a les 06 UTC al 06 a les 20 UTC
Vent 10 kt del Sud-Oest amb ràfegues de 20 kt
Visibilitat: 8000 m
Núvols disperses a una alçada de 4000 ft
Núvols disperses a una alçada de 10000 ft
Temporalment
l' 06 a les 08 UTC al 06 a les 18 UTC
Visibilitat: 4000 m
Pols estès, torb alta de pols

TAF: OEKK 060500Z 0606/0620 22010G20KT 8000 SCT040 SCT100 TEMPO 0608/0618 4000 DU BLDU

Observacions i pronòstics meteorològics de més de 4000 aeroports (METAR i TAF).

Les estacions disponibles són els punts grocs i vermells al mapa.

Posi el ratolí al punt desitjat per veure el nom de l'estació.

Feu clic per veure les observacions i els pronòstics meteorològics.

Per canviar el mapa: feu clic els botons verds amb una creu de color negre per apropar; al botó verd amb un guió per allunyar la imatge; o en les fletxes verdes per a mapes adjacents.


METAR-TAF: